sensor_id;sensor_type;location;lat;lon;timestamp;temperature;humidity
13694;DHT22;6919;52.344;14.518;2022-12-18T00:00:08;-3.70;99.90
13694;DHT22;6919;52.344;14.518;2022-12-18T00:02:39;-4.00;99.90
13694;DHT22;6919;52.344;14.518;2022-12-18T00:05:07;-4.00;99.90
13694;DHT22;6919;52.344;14.518;2022-12-18T00:07:36;-3.80;99.90
13694;DHT22;6919;52.344;14.518;2022-12-18T00:10:06;-3.70;99.90
13694;DHT22;6919;52.344;14.518;2022-12-18T00:12:34;-3.70;99.90
13694;DHT22;6919;52.344;14.518;2022-12-18T00:15:04;-3.90;99.90
13694;DHT22;6919;52.344;14.518;2022-12-18T00:17:32;-3.80;99.90
13694;DHT22;6919;52.344;14.518;2022-12-18T00:20:02;-3.70;99.90
13694;DHT22;6919;52.344;14.518;2022-12-18T00:22:31;-3.50;99.90
13694;DHT22;6919;52.344;14.518;2022-12-18T00:24:59;-3.60;99.90
13694;DHT22;6919;52.344;14.518;2022-12-18T00:27:27;-3.60;99.90
13694;DHT22;6919;52.344;14.518;2022-12-18T00:29:56;-3.40;99.90
13694;DHT22;6919;52.344;14.518;2022-12-18T00:32:24;-3.50;99.90
13694;DHT22;6919;52.344;14.518;2022-12-18T00:34:52;-3.60;99.90
13694;DHT22;6919;52.344;14.518;2022-12-18T00:37:21;-3.60;99.90
13694;DHT22;6919;52.344;14.518;2022-12-18T00:39:50;-3.50;99.90
13694;DHT22;6919;52.344;14.518;2022-12-18T00:42:18;-3.60;99.90
13694;DHT22;6919;52.344;14.518;2022-12-18T00:45:04;-3.50;99.90
13694;DHT22;6919;52.344;14.518;2022-12-18T00:47:38;-3.60;99.90
13694;DHT22;6919;52.344;14.518;2022-12-18T00:50:08;-3.60;99.90
13694;DHT22;6919;52.344;14.518;2022-12-18T00:52:41;-3.50;99.90
13694;DHT22;6919;52.344;14.518;2022-12-18T00:55:10;-3.40;99.90
13694;DHT22;6919;52.344;14.518;2022-12-18T00:57:39;-3.60;99.90
13694;DHT22;6919;52.344;14.518;2022-12-18T01:00:10;-3.60;99.90
13694;DHT22;6919;52.344;14.518;2022-12-18T01:02:41;-3.40;99.90
13694;DHT22;6919;52.344;14.518;2022-12-18T01:05:11;-3.50;99.90
13694;DHT22;6919;52.344;14.518;2022-12-18T01:07:42;-3.50;99.90
13694;DHT22;6919;52.344;14.518;2022-12-18T01:10:11;-3.50;99.90
13694;DHT22;6919;52.344;14.518;2022-12-18T01:12:41;-3.40;99.90
13694;DHT22;6919;52.344;14.518;2022-12-18T01:15:10;-3.40;99.90
13694;DHT22;6919;52.344;14.518;2022-12-18T01:17:41;-3.40;99.90
13694;DHT22;6919;52.344;14.518;2022-12-18T01:20:11;-3.60;99.90
13694;DHT22;6919;52.344;14.518;2022-12-18T01:22:41;-3.40;99.90
13694;DHT22;6919;52.344;14.518;2022-12-18T01:25:10;-3.40;99.90
13694;DHT22;6919;52.344;14.518;2022-12-18T01:27:38;-3.70;99.90
13694;DHT22;6919;52.344;14.518;2022-12-18T01:30:07;-3.50;99.90
13694;DHT22;6919;52.344;14.518;2022-12-18T01:32:36;-3.90;99.90
13694;DHT22;6919;52.344;14.518;2022-12-18T01:35:06;-3.80;99.90
13694;DHT22;6919;52.344;14.518;2022-12-18T01:37:35;-3.70;99.90
13694;DHT22;6919;52.344;14.518;2022-12-18T01:40:06;-3.80;99.90
13694;DHT22;6919;52.344;14.518;2022-12-18T01:42:35;-3.70;99.90
13694;DHT22;6919;52.344;14.518;2022-12-18T01:45:06;-3.60;99.90
13694;DHT22;6919;52.344;14.518;2022-12-18T01:47:51;-3.60;99.90
13694;DHT22;6919;52.344;14.518;2022-12-18T01:50:24;-3.70;99.90
13694;DHT22;6919;52.344;14.518;2022-12-18T01:52:59;-3.80;99.90
13694;DHT22;6919;52.344;14.518;2022-12-18T01:55:37;-3.70;99.90
13694;DHT22;6919;52.344;14.518;2022-12-18T01:58:08;-3.90;99.90
13694;DHT22;6919;52.344;14.518;2022-12-18T02:00:37;-3.60;99.90
13694;DHT22;6919;52.344;14.518;2022-12-18T02:03:05;-3.60;99.90
13694;DHT22;6919;52.344;14.518;2022-12-18T02:05:40;-3.60;99.90
13694;DHT22;6919;52.344;14.518;2022-12-18T02:08:18;-3.60;99.90
13694;DHT22;6919;52.344;14.518;2022-12-18T02:10:58;-3.80;99.90
13694;DHT22;6919;52.344;14.518;2022-12-18T02:13:38;-3.80;99.90
13694;DHT22;6919;52.344;14.518;2022-12-18T02:16:20;-4.00;99.90
13694;DHT22;6919;52.344;14.518;2022-12-18T02:18:56;-4.10;99.90
13694;DHT22;6919;52.344;14.518;2022-12-18T02:21:32;-4.00;99.90
13694;DHT22;6919;52.344;14.518;2022-12-18T02:24:18;-3.70;99.90
13694;DHT22;6919;52.344;14.518;2022-12-18T02:26:59;-3.60;99.90
13694;DHT22;6919;52.344;14.518;2022-12-18T02:29:34;-3.50;99.90
13694;DHT22;6919;52.344;14.518;2022-12-18T02:32:10;-3.60;99.90
13694;DHT22;6919;52.344;14.518;2022-12-18T02:34:43;-3.50;99.90
13694;DHT22;6919;52.344;14.518;2022-12-18T02:37:16;-3.90;99.90
13694;DHT22;6919;52.344;14.518;2022-12-18T02:39:48;-3.80;99.90
13694;DHT22;6919;52.344;14.518;2022-12-18T02:42:19;-4.00;99.90
13694;DHT22;6919;52.344;14.518;2022-12-18T02:44:48;-4.10;99.90
13694;DHT22;6919;52.344;14.518;2022-12-18T02:47:20;-4.10;99.90
13694;DHT22;6919;52.344;14.518;2022-12-18T02:49:57;-4.00;99.90
13694;DHT22;6919;52.344;14.518;2022-12-18T02:52:37;-4.10;99.90
13694;DHT22;6919;52.344;14.518;2022-12-18T02:55:19;-3.60;99.90
13694;DHT22;6919;52.344;14.518;2022-12-18T02:58:04;-3.50;99.90
13694;DHT22;6919;52.344;14.518;2022-12-18T03:00:46;-3.50;99.90
13694;DHT22;6919;52.344;14.518;2022-12-18T03:03:25;-3.70;99.90
13694;DHT22;6919;52.344;14.518;2022-12-18T03:06:01;-4.00;99.90
13694;DHT22;6919;52.344;14.518;2022-12-18T03:08:37;-3.80;99.90
13694;DHT22;6919;52.344;14.518;2022-12-18T03:11:10;-3.80;99.90
13694;DHT22;6919;52.344;14.518;2022-12-18T03:13:45;-3.70;99.90
13694;DHT22;6919;52.344;14.518;2022-12-18T03:16:19;-4.10;99.90
13694;DHT22;6919;52.344;14.518;2022-12-18T03:18:54;-4.10;99.90
13694;DHT22;6919;52.344;14.518;2022-12-18T03:21:29;-4.10;99.90
13694;DHT22;6919;52.344;14.518;2022-12-18T03:24:06;-4.20;99.90
13694;DHT22;6919;52.344;14.518;2022-12-18T03:26:40;-3.70;99.90
13694;DHT22;6919;52.344;14.518;2022-12-18T03:29:17;-3.70;99.90
13694;DHT22;6919;52.344;14.518;2022-12-18T03:31:53;-3.90;99.90
13694;DHT22;6919;52.344;14.518;2022-12-18T03:34:28;-3.90;99.90
13694;DHT22;6919;52.344;14.518;2022-12-18T03:37:03;-4.10;99.90
13694;DHT22;6919;52.344;14.518;2022-12-18T03:39:32;-3.80;99.90
13694;DHT22;6919;52.344;14.518;2022-12-18T03:42:04;-3.90;99.90
13694;DHT22;6919;52.344;14.518;2022-12-18T03:44:40;-4.10;99.90
13694;DHT22;6919;52.344;14.518;2022-12-18T03:47:17;-4.10;99.90
13694;DHT22;6919;52.344;14.518;2022-12-18T03:49:57;-4.20;99.90
13694;DHT22;6919;52.344;14.518;2022-12-18T03:52:41;-4.20;99.90
13694;DHT22;6919;52.344;14.518;2022-12-18T03:55:18;-4.10;99.90
13694;DHT22;6919;52.344;14.518;2022-12-18T03:57:49;-4.20;99.90
13694;DHT22;6919;52.344;14.518;2022-12-18T04:00:22;-4.10;99.90
13694;DHT22;6919;52.344;14.518;2022-12-18T04:02:52;-4.40;99.90
13694;DHT22;6919;52.344;14.518;2022-12-18T04:05:25;-4.20;99.90
13694;DHT22;6919;52.344;14.518;2022-12-18T04:07:55;-4.20;99.90
13694;DHT22;6919;52.344;14.518;2022-12-18T04:10:24;-4.10;99.90
13694;DHT22;6919;52.344;14.518;2022-12-18T04:12:55;-4.00;99.90
13694;DHT22;6919;52.344;14.518;2022-12-18T04:15:25;-4.10;99.90
13694;DHT22;6919;52.344;14.518;2022-12-18T04:17:53;-4.10;99.90
13694;DHT22;6919;52.344;14.518;2022-12-18T04:20:21;-3.80;99.90
13694;DHT22;6919;52.344;14.518;2022-12-18T04:22:50;-4.00;99.90
13694;DHT22;6919;52.344;14.518;2022-12-18T04:25:18;-4.10;99.90
13694;DHT22;6919;52.344;14.518;2022-12-18T04:27:46;-4.00;99.90
13694;DHT22;6919;52.344;14.518;2022-12-18T04:30:14;-4.00;99.90
13694;DHT22;6919;52.344;14.518;2022-12-18T04:32:44;-4.10;99.90
13694;DHT22;6919;52.344;14.518;2022-12-18T04:35:18;-4.30;99.90
13694;DHT22;6919;52.344;14.518;2022-12-18T04:37:46;-4.20;99.90
13694;DHT22;6919;52.344;14.518;2022-12-18T04:40:14;-4.50;99.90
13694;DHT22;6919;52.344;14.518;2022-12-18T04:42:42;-4.20;99.90
13694;DHT22;6919;52.344;14.518;2022-12-18T04:45:11;-4.30;99.90
13694;DHT22;6919;52.344;14.518;2022-12-18T04:47:39;-4.30;99.90
13694;DHT22;6919;52.344;14.518;2022-12-18T04:50:09;-4.10;99.90
13694;DHT22;6919;52.344;14.518;2022-12-18T04:52:37;-4.10;99.90
13694;DHT22;6919;52.344;14.518;2022-12-18T04:55:06;-4.10;99.90
13694;DHT22;6919;52.344;14.518;2022-12-18T04:57:35;-4.40;99.90
13694;DHT22;6919;52.344;14.518;2022-12-18T05:00:04;-4.60;99.90
13694;DHT22;6919;52.344;14.518;2022-12-18T05:02:33;-4.30;99.90
13694;DHT22;6919;52.344;14.518;2022-12-18T05:05:01;-3.70;99.90
13694;DHT22;6919;52.344;14.518;2022-12-18T05:07:31;-4.20;99.90
13694;DHT22;6919;52.344;14.518;2022-12-18T05:09:59;-4.20;99.90
13694;DHT22;6919;52.344;14.518;2022-12-18T05:12:28;-4.50;99.90
13694;DHT22;6919;52.344;14.518;2022-12-18T05:14:56;-4.40;99.90
13694;DHT22;6919;52.344;14.518;2022-12-18T05:17:24;-4.40;99.90
13694;DHT22;6919;52.344;14.518;2022-12-18T05:19:52;-4.60;99.90
13694;DHT22;6919;52.344;14.518;2022-12-18T05:22:20;-4.20;99.90
13694;DHT22;6919;52.344;14.518;2022-12-18T05:24:50;-4.40;99.90
13694;DHT22;6919;52.344;14.518;2022-12-18T05:27:18;-4.00;99.90
13694;DHT22;6919;52.344;14.518;2022-12-18T05:29:47;-4.00;99.90
13694;DHT22;6919;52.344;14.518;2022-12-18T05:32:15;-4.00;99.90
13694;DHT22;6919;52.344;14.518;2022-12-18T05:34:43;-4.20;99.90
13694;DHT22;6919;52.344;14.518;2022-12-18T05:37:11;-4.40;99.90
13694;DHT22;6919;52.344;14.518;2022-12-18T05:39:40;-4.40;99.90
13694;DHT22;6919;52.344;14.518;2022-12-18T05:42:09;-4.20;99.90
13694;DHT22;6919;52.344;14.518;2022-12-18T05:44:38;-4.30;99.90
13694;DHT22;6919;52.344;14.518;2022-12-18T05:47:06;-4.40;99.90
13694;DHT22;6919;52.344;14.518;2022-12-18T05:49:34;-4.50;99.90
13694;DHT22;6919;52.344;14.518;2022-12-18T05:52:02;-4.20;99.90
13694;DHT22;6919;52.344;14.518;2022-12-18T05:54:31;-4.10;99.90
13694;DHT22;6919;52.344;14.518;2022-12-18T05:56:59;-4.40;99.90
13694;DHT22;6919;52.344;14.518;2022-12-18T05:59:29;-4.00;99.90
13694;DHT22;6919;52.344;14.518;2022-12-18T06:01:57;-4.20;99.90
13694;DHT22;6919;52.344;14.518;2022-12-18T06:04:26;-4.20;99.90
13694;DHT22;6919;52.344;14.518;2022-12-18T06:06:55;-4.10;99.90
13694;DHT22;6919;52.344;14.518;2022-12-18T06:09:23;-3.90;99.90
13694;DHT22;6919;52.344;14.518;2022-12-18T06:11:52;-4.10;99.90
13694;DHT22;6919;52.344;14.518;2022-12-18T06:14:20;-4.30;99.90
13694;DHT22;6919;52.344;14.518;2022-12-18T06:16:51;-4.30;99.90
13694;DHT22;6919;52.344;14.518;2022-12-18T06:19:20;-4.30;99.90
13694;DHT22;6919;52.344;14.518;2022-12-18T06:21:49;-4.30;99.90
13694;DHT22;6919;52.344;14.518;2022-12-18T06:24:17;-4.10;99.90
13694;DHT22;6919;52.344;14.518;2022-12-18T06:26:46;-4.20;99.90
13694;DHT22;6919;52.344;14.518;2022-12-18T06:29:14;-4.30;99.90
13694;DHT22;6919;52.344;14.518;2022-12-18T06:31:42;-4.30;99.90
13694;DHT22;6919;52.344;14.518;2022-12-18T06:34:12;-3.80;99.90
13694;DHT22;6919;52.344;14.518;2022-12-18T06:36:40;-4.20;99.90
13694;DHT22;6919;52.344;14.518;2022-12-18T06:39:08;-4.20;99.90
13694;DHT22;6919;52.344;14.518;2022-12-18T06:41:36;-4.00;99.90
13694;DHT22;6919;52.344;14.518;2022-12-18T06:44:05;-4.00;99.90
13694;DHT22;6919;52.344;14.518;2022-12-18T06:46:33;-4.00;99.90
13694;DHT22;6919;52.344;14.518;2022-12-18T06:49:02;-4.10;99.90
13694;DHT22;6919;52.344;14.518;2022-12-18T06:51:31;-4.00;99.90
13694;DHT22;6919;52.344;14.518;2022-12-18T06:54:00;-4.10;99.90
13694;DHT22;6919;52.344;14.518;2022-12-18T06:56:28;-4.10;99.90
13694;DHT22;6919;52.344;14.518;2022-12-18T06:58:57;-4.20;99.90
13694;DHT22;6919;52.344;14.518;2022-12-18T07:01:25;-4.00;99.90
13694;DHT22;6919;52.344;14.518;2022-12-18T07:03:53;-4.00;99.90
13694;DHT22;6919;52.344;14.518;2022-12-18T07:06:24;-4.20;99.90
13694;DHT22;6919;52.344;14.518;2022-12-18T07:08:55;-3.90;99.90
13694;DHT22;6919;52.344;14.518;2022-12-18T07:11:23;-3.80;99.90
13694;DHT22;6919;52.344;14.518;2022-12-18T07:13:52;-3.90;99.90
13694;DHT22;6919;52.344;14.518;2022-12-18T07:16:21;-4.10;99.90
13694;DHT22;6919;52.344;14.518;2022-12-18T07:18:51;-3.90;99.90
13694;DHT22;6919;52.344;14.518;2022-12-18T07:21:20;-4.10;99.90
13694;DHT22;6919;52.344;14.518;2022-12-18T07:23:50;-4.30;99.90
13694;DHT22;6919;52.344;14.518;2022-12-18T07:26:20;-4.20;99.90
13694;DHT22;6919;52.344;14.518;2022-12-18T07:28:50;-4.10;99.90
13694;DHT22;6919;52.344;14.518;2022-12-18T07:31:21;-3.90;99.90
13694;DHT22;6919;52.344;14.518;2022-12-18T07:33:50;-3.90;99.90
13694;DHT22;6919;52.344;14.518;2022-12-18T07:36:19;-3.70;99.90
13694;DHT22;6919;52.344;14.518;2022-12-18T07:38:51;-3.70;99.90
13694;DHT22;6919;52.344;14.518;2022-12-18T07:41:21;-3.70;99.90
13694;DHT22;6919;52.344;14.518;2022-12-18T07:43:49;-3.90;99.90
13694;DHT22;6919;52.344;14.518;2022-12-18T07:46:18;-3.90;99.90
13694;DHT22;6919;52.344;14.518;2022-12-18T07:48:46;-3.80;99.90
13694;DHT22;6919;52.344;14.518;2022-12-18T07:51:17;-4.10;99.90
13694;DHT22;6919;52.344;14.518;2022-12-18T07:53:46;-4.10;99.90
13694;DHT22;6919;52.344;14.518;2022-12-18T07:56:19;-3.70;99.90
13694;DHT22;6919;52.344;14.518;2022-12-18T07:58:56;-3.70;99.90
13694;DHT22;6919;52.344;14.518;2022-12-18T08:01:25;-3.40;99.90
13694;DHT22;6919;52.344;14.518;2022-12-18T08:03:54;-3.70;99.90
13694;DHT22;6919;52.344;14.518;2022-12-18T08:06:25;-3.90;99.90
13694;DHT22;6919;52.344;14.518;2022-12-18T08:08:53;-4.10;99.90
13694;DHT22;6919;52.344;14.518;2022-12-18T08:11:25;-4.20;99.90
13694;DHT22;6919;52.344;14.518;2022-12-18T08:13:55;-4.10;99.90
13694;DHT22;6919;52.344;14.518;2022-12-18T08:16:24;-4.00;99.90
13694;DHT22;6919;52.344;14.518;2022-12-18T08:18:53;-4.00;99.90
13694;DHT22;6919;52.344;14.518;2022-12-18T08:21:23;-3.90;99.90
13694;DHT22;6919;52.344;14.518;2022-12-18T08:23:53;-3.80;99.90
13694;DHT22;6919;52.344;14.518;2022-12-18T08:26:26;-4.00;99.90
13694;DHT22;6919;52.344;14.518;2022-12-18T08:28:57;-4.10;99.90
13694;DHT22;6919;52.344;14.518;2022-12-18T08:31:28;-4.00;99.90
13694;DHT22;6919;52.344;14.518;2022-12-18T08:33:57;-4.00;99.90
13694;DHT22;6919;52.344;14.518;2022-12-18T08:36:26;-4.10;99.90
13694;DHT22;6919;52.344;14.518;2022-12-18T08:38:54;-4.00;99.90
13694;DHT22;6919;52.344;14.518;2022-12-18T08:41:24;-3.90;99.90
13694;DHT22;6919;52.344;14.518;2022-12-18T08:43:52;-4.00;99.90
13694;DHT22;6919;52.344;14.518;2022-12-18T08:46:39;-3.90;99.90
13694;DHT22;6919;52.344;14.518;2022-12-18T08:49:10;-3.90;99.90
13694;DHT22;6919;52.344;14.518;2022-12-18T08:51:39;-3.70;99.90
13694;DHT22;6919;52.344;14.518;2022-12-18T08:54:11;-3.90;99.90
13694;DHT22;6919;52.344;14.518;2022-12-18T08:56:41;-4.10;99.90
13694;DHT22;6919;52.344;14.518;2022-12-18T08:59:10;-4.10;99.90
13694;DHT22;6919;52.344;14.518;2022-12-18T09:01:46;-4.20;99.90
13694;DHT22;6919;52.344;14.518;2022-12-18T09:04:15;-4.00;99.90
13694;DHT22;6919;52.344;14.518;2022-12-18T09:06:44;-4.00;99.90
13694;DHT22;6919;52.344;14.518;2022-12-18T09:09:12;-4.10;99.90
13694;DHT22;6919;52.344;14.518;2022-12-18T09:11:42;-3.40;99.90
13694;DHT22;6919;52.344;14.518;2022-12-18T09:14:10;-4.10;99.90
13694;DHT22;6919;52.344;14.518;2022-12-18T09:16:38;-4.00;99.90
13694;DHT22;6919;52.344;14.518;2022-12-18T09:19:07;-3.80;99.90
13694;DHT22;6919;52.344;14.518;2022-12-18T09:21:39;-3.90;99.90
13694;DHT22;6919;52.344;14.518;2022-12-18T09:24:14;-3.70;99.90
13694;DHT22;6919;52.344;14.518;2022-12-18T09:26:45;-3.80;99.90
13694;DHT22;6919;52.344;14.518;2022-12-18T09:29:14;-3.70;99.90
13694;DHT22;6919;52.344;14.518;2022-12-18T09:31:44;-3.80;99.90
13694;DHT22;6919;52.344;14.518;2022-12-18T09:34:13;-3.90;99.90
13694;DHT22;6919;52.344;14.518;2022-12-18T09:36:41;-3.90;99.90
13694;DHT22;6919;52.344;14.518;2022-12-18T09:39:09;-3.90;99.90
13694;DHT22;6919;52.344;14.518;2022-12-18T09:41:47;-3.90;99.90
13694;DHT22;6919;52.344;14.518;2022-12-18T09:44:24;-3.90;99.90
13694;DHT22;6919;52.344;14.518;2022-12-18T09:47:11;-4.10;99.90
13694;DHT22;6919;52.344;14.518;2022-12-18T09:49:45;-4.00;99.90
13694;DHT22;6919;52.344;14.518;2022-12-18T09:52:18;-4.00;99.90
13694;DHT22;6919;52.344;14.518;2022-12-18T09:54:53;-4.00;99.90
13694;DHT22;6919;52.344;14.518;2022-12-18T09:57:29;-3.20;99.90
13694;DHT22;6919;52.344;14.518;2022-12-18T10:00:06;-3.60;99.90
13694;DHT22;6919;52.344;14.518;2022-12-18T10:02:43;-3.70;99.90
13694;DHT22;6919;52.344;14.518;2022-12-18T10:05:13;-3.70;99.90
13694;DHT22;6919;52.344;14.518;2022-12-18T10:07:50;-4.00;99.90
13694;DHT22;6919;52.344;14.518;2022-12-18T10:10:35;-4.20;99.90
13694;DHT22;6919;52.344;14.518;2022-12-18T10:13:19;-4.10;99.90
13694;DHT22;6919;52.344;14.518;2022-12-18T10:16:09;-4.00;99.90
13694;DHT22;6919;52.344;14.518;2022-12-18T10:19:14;-3.90;99.90
13694;DHT22;6919;52.344;14.518;2022-12-18T10:21:56;-3.60;99.90
13694;DHT22;6919;52.344;14.518;2022-12-18T10:24:35;-3.90;99.90
13694;DHT22;6919;52.344;14.518;2022-12-18T10:27:13;-3.70;99.90
13694;DHT22;6919;52.344;14.518;2022-12-18T10:29:45;-3.70;99.90
13694;DHT22;6919;52.344;14.518;2022-12-18T10:32:15;-3.80;99.90
13694;DHT22;6919;52.344;14.518;2022-12-18T10:34:47;-3.70;99.90
13694;DHT22;6919;52.344;14.518;2022-12-18T10:37:27;-3.80;99.90
13694;DHT22;6919;52.344;14.518;2022-12-18T10:40:12;-3.80;99.90
13694;DHT22;6919;52.344;14.518;2022-12-18T10:43:03;-3.90;99.90
13694;DHT22;6919;52.344;14.518;2022-12-18T10:45:34;-3.80;99.90
13694;DHT22;6919;52.344;14.518;2022-12-18T10:48:03;-3.90;99.90
13694;DHT22;6919;52.344;14.518;2022-12-18T10:50:33;-3.80;99.90
13694;DHT22;6919;52.344;14.518;2022-12-18T10:53:26;-3.80;99.90
13694;DHT22;6919;52.344;14.518;2022-12-18T10:55:57;-3.90;99.90
13694;DHT22;6919;52.344;14.518;2022-12-18T10:58:32;-3.80;99.90
13694;DHT22;6919;52.344;14.518;2022-12-18T11:01:06;-3.80;99.90
13694;DHT22;6919;52.344;14.518;2022-12-18T11:03:38;-4.00;99.90
13694;DHT22;6919;52.344;14.518;2022-12-18T11:06:10;-4.00;99.90
13694;DHT22;6919;52.344;14.518;2022-12-18T11:08:41;-4.00;99.90
13694;DHT22;6919;52.344;14.518;2022-12-18T11:11:20;-3.90;99.90
13694;DHT22;6919;52.344;14.518;2022-12-18T11:14:00;-4.00;99.90
13694;DHT22;6919;52.344;14.518;2022-12-18T11:16:34;-3.80;99.90
13694;DHT22;6919;52.344;14.518;2022-12-18T11:19:33;-3.80;99.90
13694;DHT22;6919;52.344;14.518;2022-12-18T11:22:18;-3.80;99.90
13694;DHT22;6919;52.344;14.518;2022-12-18T11:24:54;-3.90;99.90
13694;DHT22;6919;52.344;14.518;2022-12-18T11:27:48;-3.90;99.90
13694;DHT22;6919;52.344;14.518;2022-12-18T11:30:25;-3.90;99.90
13694;DHT22;6919;52.344;14.518;2022-12-18T11:33:00;-3.80;99.90
13694;DHT22;6919;52.344;14.518;2022-12-18T11:35:39;-3.60;99.90
13694;DHT22;6919;52.344;14.518;2022-12-18T11:38:18;-3.80;99.90
13694;DHT22;6919;52.344;14.518;2022-12-18T11:40:55;-3.10;99.90
13694;DHT22;6919;52.344;14.518;2022-12-18T11:43:29;-3.90;99.90
13694;DHT22;6919;52.344;14.518;2022-12-18T11:46:05;-3.60;99.90
13694;DHT22;6919;52.344;14.518;2022-12-18T11:48:47;-3.70;99.90
13694;DHT22;6919;52.344;14.518;2022-12-18T11:51:33;-3.70;99.90
13694;DHT22;6919;52.344;14.518;2022-12-18T11:54:12;-3.80;99.90
13694;DHT22;6919;52.344;14.518;2022-12-18T11:56:46;-3.90;99.90
13694;DHT22;6919;52.344;14.518;2022-12-18T11:59:27;-3.90;99.90
13694;DHT22;6919;52.344;14.518;2022-12-18T12:02:16;-3.90;99.90
13694;DHT22;6919;52.344;14.518;2022-12-18T12:05:11;-4.10;99.90
13694;DHT22;6919;52.344;14.518;2022-12-18T12:07:56;-3.60;99.90
13694;DHT22;6919;52.344;14.518;2022-12-18T12:10:41;-3.50;99.90
13694;DHT22;6919;52.344;14.518;2022-12-18T12:13:29;-3.70;99.90
13694;DHT22;6919;52.344;14.518;2022-12-18T12:16:15;-3.90;99.90
13694;DHT22;6919;52.344;14.518;2022-12-18T12:19:06;-3.90;99.90
13694;DHT22;6919;52.344;14.518;2022-12-18T12:21:56;-3.80;99.90
13694;DHT22;6919;52.344;14.518;2022-12-18T12:24:39;-3.90;99.90
13694;DHT22;6919;52.344;14.518;2022-12-18T12:27:25;-3.80;99.90
13694;DHT22;6919;52.344;14.518;2022-12-18T12:30:07;-3.70;99.90
13694;DHT22;6919;52.344;14.518;2022-12-18T12:32:47;-3.50;99.90
13694;DHT22;6919;52.344;14.518;2022-12-18T12:35:36;-3.50;99.90
13694;DHT22;6919;52.344;14.518;2022-12-18T12:38:17;-3.40;99.90
13694;DHT22;6919;52.344;14.518;2022-12-18T12:40:52;-3.60;99.90
13694;DHT22;6919;52.344;14.518;2022-12-18T12:43:35;-3.80;99.90
13694;DHT22;6919;52.344;14.518;2022-12-18T12:46:17;-3.50;99.90
13694;DHT22;6919;52.344;14.518;2022-12-18T12:48:50;-3.50;99.90
13694;DHT22;6919;52.344;14.518;2022-12-18T12:51:22;-3.60;99.90
13694;DHT22;6919;52.344;14.518;2022-12-18T12:53:56;-3.60;99.90
13694;DHT22;6919;52.344;14.518;2022-12-18T12:56:37;-3.40;99.90
13694;DHT22;6919;52.344;14.518;2022-12-18T12:59:17;-3.50;99.90
13694;DHT22;6919;52.344;14.518;2022-12-18T13:01:56;-3.40;99.90
13694;DHT22;6919;52.344;14.518;2022-12-18T13:04:34;-3.40;99.90
13694;DHT22;6919;52.344;14.518;2022-12-18T13:07:14;-3.50;99.90
13694;DHT22;6919;52.344;14.518;2022-12-18T13:10:22;-3.40;99.90
13694;DHT22;6919;52.344;14.518;2022-12-18T13:12:56;-3.50;99.90
13694;DHT22;6919;52.344;14.518;2022-12-18T13:15:33;-3.50;99.90
13694;DHT22;6919;52.344;14.518;2022-12-18T13:18:18;-3.50;99.90
13694;DHT22;6919;52.344;14.518;2022-12-18T13:20:51;-3.60;99.90
13694;DHT22;6919;52.344;14.518;2022-12-18T13:23:34;-3.60;99.90
13694;DHT22;6919;52.344;14.518;2022-12-18T13:26:33;-3.00;99.90
13694;DHT22;6919;52.344;14.518;2022-12-18T13:29:03;-3.50;99.90
13694;DHT22;6919;52.344;14.518;2022-12-18T13:34:29;-3.50;99.90
13694;DHT22;6919;52.344;14.518;2022-12-18T13:40:53;-3.50;99.90
13694;DHT22;6919;52.344;14.518;2022-12-18T13:43:31;-3.20;99.90
13694;DHT22;6919;52.344;14.518;2022-12-18T13:46:19;-3.40;99.90
13694;DHT22;6919;52.344;14.518;2022-12-18T13:48:56;-3.50;99.90
13694;DHT22;6919;52.344;14.518;2022-12-18T13:51:28;-3.60;99.90
13694;DHT22;6919;52.344;14.518;2022-12-18T13:54:01;-3.60;99.90
13694;DHT22;6919;52.344;14.518;2022-12-18T13:56:33;-3.60;99.90
13694;DHT22;6919;52.344;14.518;2022-12-18T13:59:22;-3.60;99.90
13694;DHT22;6919;52.344;14.518;2022-12-18T14:01:53;-3.70;99.90
13694;DHT22;6919;52.344;14.518;2022-12-18T14:04:27;-3.70;99.90
13694;DHT22;6919;52.344;14.518;2022-12-18T14:07:01;-3.70;99.90
13694;DHT22;6919;52.344;14.518;2022-12-18T14:09:36;-3.70;99.90
13694;DHT22;6919;52.344;14.518;2022-12-18T14:12:15;-3.70;99.90
13694;DHT22;6919;52.344;14.518;2022-12-18T14:15:06;-3.50;99.90
13694;DHT22;6919;52.344;14.518;2022-12-18T14:17:48;-3.60;99.90
13694;DHT22;6919;52.344;14.518;2022-12-18T14:20:17;-3.70;99.90
13694;DHT22;6919;52.344;14.518;2022-12-18T14:22:47;-3.70;99.90
13694;DHT22;6919;52.344;14.518;2022-12-18T14:25:19;-3.70;99.90
13694;DHT22;6919;52.344;14.518;2022-12-18T14:27:51;-3.80;99.90
13694;DHT22;6919;52.344;14.518;2022-12-18T14:30:30;-3.80;99.90
13694;DHT22;6919;52.344;14.518;2022-12-18T14:33:02;-3.70;99.90
13694;DHT22;6919;52.344;14.518;2022-12-18T14:35:33;-3.60;99.90
13694;DHT22;6919;52.344;14.518;2022-12-18T14:38:20;-3.60;99.90
13694;DHT22;6919;52.344;14.518;2022-12-18T14:40:55;-3.60;99.90
13694;DHT22;6919;52.344;14.518;2022-12-18T14:43:28;-3.80;99.90
13694;DHT22;6919;52.344;14.518;2022-12-18T14:45:59;-3.80;99.90
13694;DHT22;6919;52.344;14.518;2022-12-18T14:48:36;-3.70;99.90
13694;DHT22;6919;52.344;14.518;2022-12-18T14:51:15;-3.80;99.90
13694;DHT22;6919;52.344;14.518;2022-12-18T14:53:47;-3.80;99.90
13694;DHT22;6919;52.344;14.518;2022-12-18T14:56:22;-3.80;99.90
13694;DHT22;6919;52.344;14.518;2022-12-18T14:58:55;-4.00;99.90
13694;DHT22;6919;52.344;14.518;2022-12-18T15:01:29;-3.90;99.90
13694;DHT22;6919;52.344;14.518;2022-12-18T15:04:01;-4.00;99.90
13694;DHT22;6919;52.344;14.518;2022-12-18T15:06:33;-3.90;99.90
13694;DHT22;6919;52.344;14.518;2022-12-18T15:09:05;-3.90;99.90
13694;DHT22;6919;52.344;14.518;2022-12-18T15:11:55;-3.80;99.90
13694;DHT22;6919;52.344;14.518;2022-12-18T15:14:33;-3.90;99.90
13694;DHT22;6919;52.344;14.518;2022-12-18T15:17:17;-4.00;99.90
13694;DHT22;6919;52.344;14.518;2022-12-18T15:19:50;-4.10;99.90
13694;DHT22;6919;52.344;14.518;2022-12-18T15:22:24;-4.10;99.90
13694;DHT22;6919;52.344;14.518;2022-12-18T15:24:54;-4.00;99.90
13694;DHT22;6919;52.344;14.518;2022-12-18T15:27:30;-4.00;99.90
13694;DHT22;6919;52.344;14.518;2022-12-18T15:30:17;-4.10;99.90
13694;DHT22;6919;52.344;14.518;2022-12-18T15:32:52;-4.10;99.90
13694;DHT22;6919;52.344;14.518;2022-12-18T15:35:40;-4.10;99.90
13694;DHT22;6919;52.344;14.518;2022-12-18T15:38:13;-4.00;99.90
13694;DHT22;6919;52.344;14.518;2022-12-18T15:40:41;-4.00;99.90
13694;DHT22;6919;52.344;14.518;2022-12-18T15:43:09;-4.10;99.90
13694;DHT22;6919;52.344;14.518;2022-12-18T15:45:55;-4.10;99.90
13694;DHT22;6919;52.344;14.518;2022-12-18T15:48:25;-4.10;99.90
13694;DHT22;6919;52.344;14.518;2022-12-18T15:50:56;-4.10;99.90
13694;DHT22;6919;52.344;14.518;2022-12-18T15:53:27;-4.10;99.90
13694;DHT22;6919;52.344;14.518;2022-12-18T15:55:58;-4.10;99.90
13694;DHT22;6919;52.344;14.518;2022-12-18T15:58:44;-4.30;99.90
13694;DHT22;6919;52.344;14.518;2022-12-18T16:01:12;-4.30;99.90
13694;DHT22;6919;52.344;14.518;2022-12-18T16:03:43;-4.30;99.90
13694;DHT22;6919;52.344;14.518;2022-12-18T16:06:11;-4.10;99.90
13694;DHT22;6919;52.344;14.518;2022-12-18T16:08:40;-4.30;99.90
13694;DHT22;6919;52.344;14.518;2022-12-18T16:11:20;-4.30;99.90
13694;DHT22;6919;52.344;14.518;2022-12-18T16:14:16;-4.30;99.90
13694;DHT22;6919;52.344;14.518;2022-12-18T16:16:46;-4.40;99.90